Peters, Texas
Current Conditions -  °F | °C
As of 9:35 PM on Saturday 25 Oct 2014 (Local Time) from KELA Reporting Station
Clear Clear  
Wind Chill: 67°   Ceiling: Unl
Heat Index: 67°   Visibility: 10mi
Dew Point: 60°   Wind: 6mph
Humidity: 77%   Direction: 180°S
Pressure: 30.1"   Gusts: NA
Location:  29.7835°N, 96.2064°W
Report Text: KELA 260235Z AUTO 18005KT 10SM CLR 20/16 A3010 RMK AO2 T01960155
Loading
Personal Weather Stations






























Interactive Weather Map
Tropical Storm Tracking
New forecast layout! Learn more

10-Day Weather Forecast

Advertisements
Track Severe Weather on mobile